createdAt,value
2022-08-23T00:00:13.425Z,18.90
2022-08-23T00:02:43.746Z,14.43
2022-08-23T00:05:13.210Z,13.45
2022-08-23T00:07:45.020Z,16.08
2022-08-23T00:10:18.032Z,11.05
2022-08-23T00:12:48.517Z,11.52
2022-08-23T00:15:21.666Z,9.15
2022-08-23T00:17:51.564Z,8.47
2022-08-23T00:20:21.482Z,8.23
2022-08-23T00:22:50.981Z,10.07
2022-08-23T00:25:21.270Z,12.25
2022-08-23T00:27:50.864Z,6.60
2022-08-23T00:30:20.389Z,8.38
2022-08-23T00:32:49.772Z,9.07
2022-08-23T00:35:26.383Z,8.07
2022-08-23T00:38:31.756Z,8.43
2022-08-23T00:40:52.747Z,10.55
2022-08-23T00:43:55.823Z,8.68
2022-08-23T00:47:15.728Z,9.02
2022-08-23T00:49:50.839Z,11.10
2022-08-23T00:52:38.583Z,5.30
2022-08-23T00:55:08.623Z,7.38
2022-08-23T00:57:38.510Z,6.78
2022-08-23T01:00:10.792Z,14.52
2022-08-23T01:02:41.341Z,7.88
2022-08-23T01:05:11.316Z,7.63
2022-08-23T01:08:01.302Z,15.00
2022-08-23T01:10:35.295Z,9.07
2022-08-23T01:16:15.007Z,5.57
2022-08-23T01:18:45.195Z,11.10
2022-08-23T01:21:41.587Z,20.45
2022-08-23T01:24:25.242Z,15.43
2022-08-23T01:27:02.532Z,11.00
2022-08-23T01:29:32.023Z,13.02
2022-08-23T01:32:01.916Z,14.60
2022-08-23T01:34:34.631Z,13.73
2022-08-23T01:37:09.062Z,5.38
2022-08-23T01:39:39.137Z,5.95
2022-08-23T01:42:10.069Z,4.55
2022-08-23T01:44:39.896Z,21.83
2022-08-23T01:47:09.537Z,20.13
2022-08-23T01:49:38.777Z,7.97
2022-08-23T01:52:10.904Z,13.40
2022-08-23T01:54:42.183Z,7.70
2022-08-23T01:57:12.274Z,9.00
2022-08-23T01:59:41.889Z,8.20
2022-08-23T02:04:45.423Z,8.82
2022-08-23T02:07:15.075Z,13.23
2022-08-23T02:09:48.217Z,13.07
2022-08-23T02:12:17.750Z,23.25
2022-08-23T02:14:47.238Z,10.52
2022-08-23T02:17:17.572Z,10.90
2022-08-23T02:19:47.413Z,24.80
2022-08-23T02:22:16.855Z,8.35
2022-08-23T02:24:47.959Z,10.05
2022-08-23T02:27:18.523Z,9.07
2022-08-23T02:29:52.785Z,13.18
2022-08-23T02:32:22.421Z,13.05
2022-08-23T02:35:05.652Z,11.63
2022-08-23T02:37:35.662Z,5.05
2022-08-23T02:40:07.734Z,16.75
2022-08-23T02:42:36.948Z,10.50
2022-08-23T02:45:09.465Z,9.88
2022-08-23T02:47:38.888Z,13.82
2022-08-23T02:50:11.333Z,9.18
2022-08-23T02:52:40.755Z,7.05
2022-08-23T02:55:10.606Z,7.00
2022-08-23T02:57:41.186Z,13.80
2022-08-23T03:00:12.891Z,4.90
2022-08-23T03:02:42.549Z,8.95
2022-08-23T03:05:14.027Z,8.38
2022-08-23T03:07:43.765Z,15.73
2022-08-23T03:10:14.185Z,5.32
2022-08-23T03:12:43.662Z,8.82
2022-08-23T03:15:13.392Z,5.72
2022-08-23T03:17:43.054Z,8.63
2022-08-23T03:20:12.955Z,16.35
2022-08-23T03:22:48.363Z,4.85
2022-08-23T03:25:24.598Z,4.22
2022-08-23T03:27:53.966Z,9.40
2022-08-23T03:30:23.342Z,10.25
2022-08-23T03:32:52.711Z,6.07
2022-08-23T03:35:22.097Z,8.65
2022-08-23T03:37:54.741Z,6.65
2022-08-23T03:40:24.589Z,5.30
2022-08-23T03:42:54.780Z,5.90
2022-08-23T03:45:23.866Z,4.60
2022-08-23T03:47:53.138Z,9.57
2022-08-23T03:50:22.412Z,5.28
2022-08-23T03:52:51.622Z,10.38
2022-08-23T03:55:21.063Z,5.90
2022-08-23T03:57:50.257Z,6.93
2022-08-23T04:00:20.246Z,10.88
2022-08-23T04:02:50.032Z,6.70
2022-08-23T04:05:19.502Z,7.63
2022-08-23T04:07:49.041Z,7.28
2022-08-23T04:10:18.799Z,10.45
2022-08-23T04:12:48.083Z,9.68
2022-08-23T04:15:17.251Z,4.10
2022-08-23T04:17:46.419Z,19.02
2022-08-23T04:20:15.509Z,8.57
2022-08-23T04:22:46.033Z,11.88
2022-08-23T04:25:34.983Z,9.07
2022-08-23T04:28:08.175Z,7.47
2022-08-23T04:30:37.529Z,12.43
2022-08-23T04:33:10.721Z,3.00
2022-08-23T04:38:24.400Z,3.42
2022-08-23T04:41:13.205Z,5.82
2022-08-23T04:43:43.617Z,7.38
2022-08-23T04:46:16.551Z,9.40
2022-08-23T04:48:47.785Z,9.27
2022-08-23T04:51:18.212Z,11.05
2022-08-23T04:53:48.260Z,2.40
2022-08-23T04:56:17.587Z,6.93
2022-08-23T04:58:47.074Z,4.50
2022-08-23T05:01:17.384Z,5.10
2022-08-23T05:03:46.871Z,7.95
2022-08-23T05:06:16.172Z,7.93
2022-08-23T05:08:45.503Z,5.43
2022-08-23T05:11:14.904Z,7.20
2022-08-23T05:13:44.354Z,3.67
2022-08-23T05:16:14.040Z,2.78
2022-08-23T05:18:43.526Z,4.15
2022-08-23T05:21:22.051Z,3.03
2022-08-23T05:23:54.670Z,1.60
2022-08-23T05:26:24.935Z,7.50
2022-08-23T05:28:54.341Z,7.13
2022-08-23T05:31:30.434Z,7.88
2022-08-23T05:34:00.260Z,11.13
2022-08-23T05:36:29.733Z,3.55
2022-08-23T05:38:59.745Z,4.57
2022-08-23T05:41:37.732Z,8.38
2022-08-23T05:44:11.677Z,2.67
2022-08-23T05:46:43.510Z,1.45
2022-08-23T05:49:13.315Z,2.13
2022-08-23T05:51:51.649Z,4.78
2022-08-23T05:54:21.527Z,4.25
2022-08-23T05:56:50.876Z,3.85
2022-08-23T05:59:21.530Z,3.05
2022-08-23T06:01:51.126Z,2.75
2022-08-23T06:04:22.677Z,2.63
2022-08-23T06:06:52.289Z,4.25
2022-08-23T06:09:21.762Z,4.82
2022-08-23T06:11:51.401Z,2.67
2022-08-23T06:14:21.014Z,1.55
2022-08-23T06:16:55.822Z,2.42
2022-08-23T06:19:26.726Z,1.30
2022-08-23T06:21:56.709Z,2.03
2022-08-23T06:24:28.021Z,4.07
2022-08-23T06:26:57.408Z,1.77
2022-08-23T06:29:26.850Z,1.30
2022-08-23T06:31:57.062Z,1.13
2022-08-23T06:34:27.824Z,2.13
2022-08-23T06:36:59.896Z,2.33
2022-08-23T06:39:35.590Z,1.27
2022-08-23T06:42:38.022Z,0.95
2022-08-23T06:45:08.384Z,1.42
2022-08-23T06:47:38.779Z,2.67
2022-08-23T06:50:08.149Z,3.28
2022-08-23T06:52:38.050Z,2.28
2022-08-23T06:55:15.789Z,2.30
2022-08-23T06:57:45.023Z,1.55
2022-08-23T07:00:17.794Z,3.85
2022-08-23T07:02:50.251Z,1.55
2022-08-23T07:05:19.497Z,2.60
2022-08-23T07:07:48.673Z,1.70
2022-08-23T07:10:17.895Z,2.33
2022-08-23T07:12:47.047Z,2.75
2022-08-23T07:15:19.645Z,1.85
2022-08-23T07:17:49.065Z,2.58
2022-08-23T07:20:18.239Z,3.13
2022-08-23T07:22:47.484Z,6.10
2022-08-23T07:25:17.212Z,9.80
2022-08-23T07:27:47.453Z,6.80
2022-08-23T07:30:16.872Z,3.53
2022-08-23T07:32:47.297Z,2.08
2022-08-23T07:35:16.447Z,3.67
2022-08-23T07:37:45.713Z,5.57
2022-08-23T07:40:20.777Z,2.13
2022-08-23T07:42:50.052Z,2.17
2022-08-23T07:45:22.321Z,4.20
2022-08-23T07:47:55.963Z,2.10
2022-08-23T07:50:25.664Z,4.70
2022-08-23T07:52:59.866Z,3.50
2022-08-23T07:55:29.266Z,3.80
2022-08-23T07:57:58.597Z,2.53
2022-08-23T08:00:28.969Z,4.57
2022-08-23T08:02:58.363Z,3.83
2022-08-23T08:05:27.735Z,2.63
2022-08-23T08:07:57.039Z,4.45
2022-08-23T08:10:26.344Z,3.20
2022-08-23T08:12:55.500Z,11.18
2022-08-23T08:15:25.139Z,4.05
2022-08-23T08:17:54.937Z,3.00
2022-08-23T08:20:24.438Z,1.55
2022-08-23T08:22:58.569Z,14.73
2022-08-23T08:25:31.422Z,2.30
2022-08-23T08:28:00.944Z,2.35
2022-08-23T08:30:30.430Z,2.70
2022-08-23T08:32:59.646Z,3.20
2022-08-23T08:35:28.712Z,2.78
2022-08-23T08:37:57.847Z,1.85
2022-08-23T08:40:32.807Z,3.25
2022-08-23T08:43:08.044Z,2.33
2022-08-23T08:46:01.584Z,2.55
2022-08-23T08:48:36.573Z,3.35
2022-08-23T08:51:12.546Z,3.00
2022-08-23T08:53:47.180Z,3.78
2022-08-23T08:56:32.134Z,3.47
2022-08-23T08:59:08.322Z,7.28
2022-08-23T09:01:39.606Z,2.95
2022-08-23T09:04:14.114Z,7.10
2022-08-23T09:06:55.588Z,2.35
2022-08-23T09:09:49.018Z,4.15
2022-08-23T09:12:32.054Z,2.95
2022-08-23T09:15:08.113Z,2.50
2022-08-23T09:17:51.217Z,3.78
2022-08-23T09:20:22.501Z,3.97
2022-08-23T09:22:59.275Z,2.42
2022-08-23T09:25:28.468Z,3.50
2022-08-23T09:27:57.906Z,6.03
2022-08-23T09:30:55.768Z,3.95
2022-08-23T09:33:28.355Z,12.68
2022-08-23T09:36:14.270Z,3.20
2022-08-23T09:38:56.951Z,2.92
2022-08-23T09:41:30.518Z,3.70
2022-08-23T09:44:02.883Z,2.95
2022-08-23T09:46:36.824Z,3.17
2022-08-23T09:49:26.440Z,2.53
2022-08-23T09:51:59.895Z,8.15
2022-08-23T09:54:38.533Z,5.30
2022-08-23T09:57:11.496Z,11.82
2022-08-23T09:59:47.996Z,9.18
2022-08-23T10:02:31.564Z,4.13
2022-08-23T10:05:03.977Z,6.10
2022-08-23T10:07:43.654Z,7.22
2022-08-23T10:10:50.945Z,16.02
2022-08-23T10:13:21.777Z,4.20
2022-08-23T10:16:15.380Z,3.13
2022-08-23T10:19:05.803Z,1.83
2022-08-23T10:21:48.339Z,3.60
2022-08-23T10:24:41.679Z,3.00
2022-08-23T10:27:47.704Z,2.67
2022-08-23T10:30:24.737Z,1.60
2022-08-23T10:33:03.612Z,3.58
2022-08-23T10:36:11.212Z,2.60
2022-08-23T10:38:58.675Z,2.17
2022-08-23T10:41:36.926Z,4.53
2022-08-23T10:44:36.295Z,3.53
2022-08-23T10:47:43.220Z,3.65
2022-08-23T10:50:23.324Z,3.78
2022-08-23T10:53:09.565Z,2.17
2022-08-23T10:56:08.619Z,2.33
2022-08-23T10:58:49.688Z,4.90
2022-08-23T11:01:35.158Z,5.30
2022-08-23T11:04:18.469Z,4.22
2022-08-23T11:07:00.243Z,14.88
2022-08-23T11:09:30.619Z,8.77
2022-08-23T11:12:28.715Z,9.13
2022-08-23T11:15:10.636Z,4.18
2022-08-23T11:18:02.028Z,4.10
2022-08-23T11:21:35.183Z,5.45
2022-08-23T11:24:04.445Z,11.57
2022-08-23T11:26:41.970Z,10.63
2022-08-23T11:29:12.012Z,11.77
2022-08-23T11:31:49.956Z,10.60
2022-08-23T11:34:29.633Z,5.90
2022-08-23T11:37:20.786Z,6.68
2022-08-23T11:39:59.465Z,8.65
2022-08-23T11:42:40.891Z,7.85
2022-08-23T11:45:48.892Z,7.03
2022-08-23T11:48:23.046Z,10.63
2022-08-23T11:51:20.515Z,7.63
2022-08-23T11:53:55.350Z,5.82
2022-08-23T11:56:44.380Z,6.85
2022-08-23T11:59:54.881Z,5.72
2022-08-23T12:03:03.459Z,7.30
2022-08-23T12:06:04.518Z,9.23
2022-08-23T12:08:56.862Z,16.30
2022-08-23T12:11:47.375Z,22.27
2022-08-23T12:14:50.830Z,15.13
2022-08-23T12:17:21.494Z,12.13
2022-08-23T12:19:56.273Z,13.88
2022-08-23T12:22:32.106Z,15.50
2022-08-23T12:25:06.395Z,11.65
2022-08-23T12:27:38.068Z,10.40
2022-08-23T12:30:21.456Z,9.68
2022-08-23T12:33:11.890Z,13.27
2022-08-23T12:35:51.492Z,15.75
2022-08-23T12:38:48.157Z,19.88
2022-08-23T12:41:56.732Z,13.13
2022-08-23T12:44:29.523Z,10.13
2022-08-23T12:47:10.802Z,9.90
2022-08-23T12:49:40.218Z,9.20
2022-08-23T12:52:12.970Z,9.32
2022-08-23T12:54:46.276Z,7.35
2022-08-23T12:57:32.578Z,8.98
2022-08-23T13:00:20.557Z,10.88
2022-08-23T13:02:55.657Z,9.25
2022-08-23T13:05:40.173Z,11.52
2022-08-23T13:08:40.746Z,12.93
2022-08-23T13:11:11.632Z,8.77
2022-08-23T13:13:44.148Z,10.70
2022-08-23T13:16:31.621Z,12.73
2022-08-23T13:19:34.736Z,9.45
2022-08-23T13:22:28.219Z,9.75
2022-08-23T13:25:28.770Z,13.37
2022-08-23T13:28:20.392Z,11.05
2022-08-23T13:31:04.610Z,7.65
2022-08-23T13:33:34.163Z,10.52
2022-08-23T13:36:21.294Z,8.13
2022-08-23T13:38:51.459Z,13.68
2022-08-23T13:41:39.162Z,18.27
2022-08-23T13:44:10.443Z,16.27
2022-08-23T13:46:48.224Z,17.77
2022-08-23T13:49:31.890Z,19.55
2022-08-23T13:52:35.951Z,11.70
2022-08-23T13:54:53.657Z,16.88
2022-08-23T13:57:25.608Z,13.48
2022-08-23T14:02:27.720Z,14.65
2022-08-23T14:04:57.087Z,12.50
2022-08-23T14:07:26.540Z,15.23
2022-08-23T14:09:55.892Z,14.95
2022-08-23T14:12:29.064Z,13.02
2022-08-23T14:15:00.437Z,15.40
2022-08-23T14:17:30.979Z,18.52
2022-08-23T14:22:49.905Z,14.32
2022-08-23T14:25:19.663Z,12.20
2022-08-23T14:27:50.990Z,11.55
2022-08-23T14:30:32.586Z,10.30
2022-08-23T14:33:02.770Z,8.48
2022-08-23T14:35:32.689Z,9.00
2022-08-23T14:38:03.790Z,10.63
2022-08-23T14:40:33.639Z,13.02
2022-08-23T14:43:03.373Z,8.10
2022-08-23T14:45:32.645Z,11.00
2022-08-23T14:48:02.037Z,19.90
2022-08-23T14:50:31.334Z,10.23
2022-08-23T14:53:03.698Z,16.55
2022-08-23T14:55:32.922Z,10.05
2022-08-23T14:58:02.024Z,14.30
2022-08-23T15:00:31.631Z,10.02
2022-08-23T15:03:01.190Z,13.57
2022-08-23T15:05:30.664Z,15.90
2022-08-23T15:07:59.838Z,14.32
2022-08-23T15:13:27.107Z,9.35
2022-08-23T15:15:59.524Z,7.82
2022-08-23T15:18:29.032Z,8.15
2022-08-23T15:20:58.086Z,9.55
2022-08-23T15:23:27.132Z,8.90
2022-08-23T15:25:57.396Z,13.85
2022-08-23T15:28:26.830Z,8.98
2022-08-23T15:30:56.179Z,10.68
2022-08-23T15:33:27.016Z,10.48
2022-08-23T15:36:01.881Z,9.90
2022-08-23T15:38:33.334Z,10.27
2022-08-23T15:41:02.648Z,7.53
2022-08-23T15:43:34.406Z,8.65
2022-08-23T15:46:13.949Z,6.68
2022-08-23T15:49:16.311Z,9.80
2022-08-23T15:51:47.947Z,10.10
2022-08-23T15:54:17.252Z,7.90
2022-08-23T15:56:50.816Z,9.50
2022-08-23T15:59:22.775Z,6.32
2022-08-23T16:01:52.132Z,12.40
2022-08-23T16:04:21.669Z,9.40
2022-08-23T16:06:51.036Z,8.27
2022-08-23T16:09:24.193Z,10.05
2022-08-23T16:11:57.149Z,8.75
2022-08-23T16:14:29.476Z,6.65
2022-08-23T16:16:59.359Z,12.00
2022-08-23T16:19:29.413Z,6.57
2022-08-23T16:21:58.809Z,7.32
2022-08-23T16:24:28.946Z,7.38
2022-08-23T16:26:58.541Z,7.70
2022-08-23T16:29:32.978Z,11.07
2022-08-23T16:32:05.521Z,10.60
2022-08-23T16:34:35.037Z,12.10
2022-08-23T16:37:08.176Z,11.23
2022-08-23T16:39:38.353Z,12.75
2022-08-23T16:42:08.601Z,15.18
2022-08-23T16:44:37.943Z,13.43
2022-08-23T16:47:10.507Z,12.52
2022-08-23T16:49:39.578Z,9.80
2022-08-23T16:52:08.699Z,9.90
2022-08-23T16:54:38.454Z,13.43
2022-08-23T16:57:08.120Z,9.30
2022-08-23T16:59:40.548Z,10.38
2022-08-23T17:02:40.596Z,11.82
2022-08-23T17:05:13.572Z,12.43
2022-08-23T17:07:43.199Z,5.88
2022-08-23T17:10:14.283Z,8.38
2022-08-23T17:12:47.619Z,8.65
2022-08-23T17:15:20.640Z,9.30
2022-08-23T17:17:50.981Z,9.63
2022-08-23T17:20:22.965Z,9.35
2022-08-23T17:22:53.113Z,10.27
2022-08-23T17:25:22.729Z,8.93
2022-08-23T17:27:54.335Z,7.65
2022-08-23T17:30:26.008Z,8.05
2022-08-23T17:32:55.670Z,8.13
2022-08-23T17:35:28.260Z,8.52
2022-08-23T17:38:03.127Z,6.80
2022-08-23T17:40:37.074Z,9.85
2022-08-23T17:43:07.007Z,14.15
2022-08-23T17:45:46.602Z,11.57
2022-08-23T17:48:17.872Z,10.15
2022-08-23T17:50:48.110Z,11.02
2022-08-23T17:53:19.800Z,10.68
2022-08-23T17:55:48.918Z,9.20
2022-08-23T17:58:18.656Z,14.95
2022-08-23T18:00:47.804Z,9.27
2022-08-23T18:03:16.886Z,8.50
2022-08-23T18:05:47.354Z,8.07
2022-08-23T18:08:17.734Z,8.60
2022-08-23T18:10:46.967Z,8.30
2022-08-23T18:13:16.154Z,10.68
2022-08-23T18:15:45.241Z,9.52
2022-08-23T18:18:14.368Z,8.82
2022-08-23T18:20:43.451Z,8.30
2022-08-23T18:23:12.540Z,8.35
2022-08-23T18:25:42.451Z,6.63
2022-08-23T18:28:12.433Z,7.05
2022-08-23T18:30:51.815Z,9.43
2022-08-23T18:33:25.285Z,12.40
2022-08-23T18:36:00.838Z,10.10
2022-08-23T18:38:29.947Z,9.25
2022-08-23T18:40:58.953Z,10.68
2022-08-23T18:43:37.131Z,9.20
2022-08-23T18:46:07.966Z,9.15
2022-08-23T18:48:37.685Z,11.18
2022-08-23T18:51:17.742Z,8.30
2022-08-23T18:53:48.053Z,9.73
2022-08-23T18:56:17.453Z,9.32
2022-08-23T18:58:46.795Z,7.05
2022-08-23T19:01:30.861Z,9.13
2022-08-23T19:06:30.590Z,8.60
2022-08-23T19:09:02.002Z,10.20
2022-08-23T19:11:32.011Z,7.65
2022-08-23T19:14:02.942Z,8.45
2022-08-23T19:16:34.188Z,7.40
2022-08-23T19:19:03.765Z,9.23
2022-08-23T19:21:33.486Z,7.10
2022-08-23T19:24:02.910Z,9.93
2022-08-23T19:26:35.402Z,9.60
2022-08-23T19:29:08.880Z,8.85
2022-08-23T19:31:46.550Z,10.20
2022-08-23T19:34:18.568Z,10.73
2022-08-23T19:36:59.103Z,9.82
2022-08-23T19:39:31.737Z,10.50
2022-08-23T19:42:01.177Z,10.07
2022-08-23T19:44:32.174Z,11.93
2022-08-23T19:47:01.897Z,7.63
2022-08-23T19:49:32.612Z,10.77
2022-08-23T19:52:02.682Z,8.90
2022-08-23T19:54:32.151Z,6.15
2022-08-23T19:57:03.433Z,10.40
2022-08-23T19:59:40.240Z,15.95
2022-08-23T20:02:11.192Z,12.63
2022-08-23T20:04:40.556Z,9.20
2022-08-23T20:07:10.234Z,10.05
2022-08-23T20:09:39.578Z,8.88
2022-08-23T20:12:09.221Z,10.02
2022-08-23T20:14:38.979Z,10.38
2022-08-23T20:17:08.683Z,17.27
2022-08-23T20:19:38.236Z,16.13
2022-08-23T20:22:25.545Z,12.10
2022-08-23T20:24:54.868Z,11.65
2022-08-23T20:27:30.858Z,8.38
2022-08-23T20:30:02.431Z,10.07
2022-08-23T20:32:32.448Z,10.07
2022-08-23T20:35:03.026Z,12.18
2022-08-23T20:37:32.567Z,14.85
2022-08-23T20:40:02.199Z,9.07
2022-08-23T20:42:31.577Z,11.90
2022-08-23T20:45:00.963Z,12.77
2022-08-23T20:47:30.335Z,9.75
2022-08-23T20:49:59.625Z,11.63
2022-08-23T20:52:31.646Z,13.50
2022-08-23T20:55:04.180Z,11.45
2022-08-23T20:57:40.088Z,13.20
2022-08-23T21:00:10.212Z,13.98
2022-08-23T21:02:39.590Z,15.95
2022-08-23T21:05:09.134Z,13.65
2022-08-23T21:07:39.438Z,13.02
2022-08-23T21:10:09.017Z,13.35
2022-08-23T21:12:38.349Z,11.35
2022-08-23T21:15:10.917Z,35.75
2022-08-23T21:17:40.746Z,22.80
2022-08-23T21:20:10.377Z,19.27
2022-08-23T21:22:39.685Z,12.25
2022-08-23T21:25:09.403Z,11.95
2022-08-23T21:27:38.963Z,11.75
2022-08-23T21:30:09.474Z,13.02
2022-08-23T21:32:38.798Z,12.05
2022-08-23T21:35:09.143Z,12.18
2022-08-23T21:37:38.585Z,16.27
2022-08-23T21:40:09.287Z,14.27
2022-08-23T21:42:38.702Z,12.32
2022-08-23T21:45:10.315Z,14.02
2022-08-23T21:47:39.411Z,14.23
2022-08-23T21:50:09.337Z,13.73
2022-08-23T21:52:38.396Z,13.45
2022-08-23T21:55:07.944Z,15.90
2022-08-23T21:57:37.438Z,13.32
2022-08-23T22:00:11.342Z,11.32
2022-08-23T22:05:13.333Z,10.25
2022-08-23T22:07:42.411Z,13.30
2022-08-23T22:10:12.203Z,18.23
2022-08-23T22:12:41.536Z,13.27
2022-08-23T22:15:11.564Z,12.23
2022-08-23T22:17:40.614Z,11.82
2022-08-23T22:20:11.912Z,9.10
2022-08-23T22:22:41.159Z,11.05
2022-08-23T22:25:10.375Z,9.35
2022-08-23T22:27:39.499Z,9.73
2022-08-23T22:30:09.033Z,12.52
2022-08-23T22:32:38.271Z,13.52
2022-08-23T22:35:07.757Z,11.07
2022-08-23T22:37:49.418Z,11.40
2022-08-23T22:40:27.653Z,13.38
2022-08-23T22:42:56.719Z,11.70
2022-08-23T22:45:26.536Z,13.77
2022-08-23T22:47:55.970Z,15.40
2022-08-23T22:50:25.331Z,13.55
2022-08-23T22:52:54.730Z,15.25
2022-08-23T22:55:24.122Z,25.42
2022-08-23T22:57:53.518Z,19.98
2022-08-23T23:00:22.971Z,15.73
2022-08-23T23:02:52.302Z,16.52
2022-08-23T23:05:21.713Z,14.93
2022-08-23T23:08:09.118Z,16.35
2022-08-23T23:10:38.491Z,15.63
2022-08-23T23:13:07.842Z,13.38
2022-08-23T23:15:37.674Z,15.98
2022-08-23T23:18:07.149Z,13.15
2022-08-23T23:20:41.292Z,14.38
2022-08-23T23:23:16.467Z,14.82
2022-08-23T23:25:47.273Z,14.02
2022-08-23T23:28:19.105Z,13.95
2022-08-23T23:30:51.513Z,14.77
2022-08-23T23:33:22.779Z,12.27
2022-08-23T23:35:53.277Z,10.23
2022-08-23T23:38:22.725Z,9.27
2022-08-23T23:40:52.462Z,13.43
2022-08-23T23:43:21.810Z,11.40
2022-08-23T23:45:56.676Z,10.65
2022-08-23T23:48:26.253Z,11.55
2022-08-23T23:50:55.567Z,8.63
2022-08-23T23:53:30.609Z,9.70
2022-08-23T23:56:04.963Z,9.00
2022-08-23T23:58:35.959Z,9.63
